sensor_id;sensor_type;location;lat;lon;timestamp;pressure;altitude;pressure_sealevel;temperature;humidity
54854;BME280;40747;49.480;8.658;2023-03-19T01:46:33;100019.69;;;9.80;97.75
54854;BME280;40747;49.480;8.658;2023-03-19T01:49:04;100016.16;;;10.08;96.43
54854;BME280;40747;49.480;8.658;2023-03-19T01:51:36;100005.47;;;10.13;94.92
54854;BME280;40747;49.480;8.658;2023-03-19T01:54:11;100013.97;;;10.21;93.25
54854;BME280;40747;49.480;8.658;2023-03-19T01:56:39;100017.63;;;10.17;92.30
54854;BME280;40747;49.480;8.658;2023-03-19T01:59:08;100027.94;;;10.23;91.96
54854;BME280;40747;49.480;8.658;2023-03-19T02:01:38;100027.25;;;10.18;92.67
54854;BME280;40747;49.480;8.658;2023-03-19T02:04:07;100037.91;;;10.13;91.84
54854;BME280;40747;49.480;8.658;2023-03-19T02:06:33;100050.16;;;10.14;91.71
54854;BME280;40747;49.480;8.658;2023-03-19T02:08:59;100039.72;;;10.11;92.30
54854;BME280;40747;49.480;8.658;2023-03-19T02:11:25;100040.84;;;10.04;92.89
54854;BME280;40747;49.480;8.658;2023-03-19T02:13:50;100046.72;;;10.12;93.18
54854;BME280;40747;49.480;8.658;2023-03-19T02:16:16;100040.47;;;10.15;92.26
54854;BME280;40747;49.480;8.658;2023-03-19T02:18:43;100049.50;;;10.08;91.86
54854;BME280;40747;49.480;8.658;2023-03-19T02:21:16;100038.75;;;10.41;90.22
54854;BME280;40747;49.480;8.658;2023-03-19T02:26:24;100048.97;;;10.75;87.66
54854;BME280;40747;49.480;8.658;2023-03-19T02:28:52;100047.22;;;10.76;86.94
54854;BME280;40747;49.480;8.658;2023-03-19T02:31:17;100060.81;;;10.63;85.56
54854;BME280;40747;49.480;8.658;2023-03-19T02:33:58;100058.13;;;10.40;86.17
54854;BME280;40747;49.480;8.658;2023-03-19T02:36:27;100054.84;;;10.58;85.87
54854;BME280;40747;49.480;8.658;2023-03-19T02:38:56;100053.72;;;10.40;85.60
54854;BME280;40747;49.480;8.658;2023-03-19T02:41:23;100063.50;;;10.35;85.07
54854;BME280;40747;49.480;8.658;2023-03-19T02:43:49;100064.94;;;10.45;85.68
54854;BME280;40747;49.480;8.658;2023-03-19T02:46:15;100067.38;;;10.52;85.46
54854;BME280;40747;49.480;8.658;2023-03-19T02:48:40;100064.41;;;10.61;85.23
54854;BME280;40747;49.480;8.658;2023-03-19T02:51:05;100060.25;;;10.54;84.78
54854;BME280;40747;49.480;8.658;2023-03-19T02:53:31;100063.50;;;10.62;84.37
54854;BME280;40747;49.480;8.658;2023-03-19T02:55:58;100058.25;;;10.62;84.46
54854;BME280;40747;49.480;8.658;2023-03-19T02:58:24;100051.72;;;10.47;84.71
54854;BME280;40747;49.480;8.658;2023-03-19T03:00:49;100053.31;;;10.51;84.70
54854;BME280;40747;49.480;8.658;2023-03-19T03:03:16;100063.66;;;10.57;83.44
54854;BME280;40747;49.480;8.658;2023-03-19T03:05:42;100060.03;;;10.61;81.83
54854;BME280;40747;49.480;8.658;2023-03-19T03:08:07;100065.53;;;10.79;81.76
54854;BME280;40747;49.480;8.658;2023-03-19T03:10:33;100067.97;;;10.85;81.14
54854;BME280;40747;49.480;8.658;2023-03-19T03:12:59;100064.97;;;10.94;80.88
54854;BME280;40747;49.480;8.658;2023-03-19T03:15:25;100053.19;;;11.05;81.82
54854;BME280;40747;49.480;8.658;2023-03-19T03:17:51;100068.00;;;11.09;81.79
54854;BME280;40747;49.480;8.658;2023-03-19T03:20:16;100068.72;;;11.12;79.56
54854;BME280;40747;49.480;8.658;2023-03-19T03:22:44;100062.66;;;11.10;80.44
54854;BME280;40747;49.480;8.658;2023-03-19T03:25:09;100061.13;;;10.79;81.04
54854;BME280;40747;49.480;8.658;2023-03-19T03:27:36;100061.09;;;10.81;81.84
54854;BME280;40747;49.480;8.658;2023-03-19T03:30:05;100057.13;;;10.93;81.66
54854;BME280;40747;49.480;8.658;2023-03-19T03:32:32;100055.53;;;10.89;81.41
54854;BME280;40747;49.480;8.658;2023-03-19T03:34:58;100052.84;;;10.90;81.21
54854;BME280;40747;49.480;8.658;2023-03-19T03:37:23;100054.22;;;11.01;81.19
54854;BME280;40747;49.480;8.658;2023-03-19T03:39:48;100068.97;;;11.06;81.06
54854;BME280;40747;49.480;8.658;2023-03-19T03:42:14;100069.13;;;11.02;81.18
54854;BME280;40747;49.480;8.658;2023-03-19T03:44:39;100077.53;;;10.88;82.14
54854;BME280;40747;49.480;8.658;2023-03-19T03:47:05;100068.81;;;10.86;82.68
54854;BME280;40747;49.480;8.658;2023-03-19T03:49:31;100069.06;;;10.78;81.93
54854;BME280;40747;49.480;8.658;2023-03-19T03:51:56;100078.16;;;10.94;81.77
54854;BME280;40747;49.480;8.658;2023-03-19T03:54:21;100074.25;;;11.06;81.42
54854;BME280;40747;49.480;8.658;2023-03-19T03:56:47;100082.41;;;11.22;80.78
54854;BME280;40747;49.480;8.658;2023-03-19T03:59:15;100078.88;;;11.23;80.99
54854;BME280;40747;49.480;8.658;2023-03-19T04:01:40;100086.78;;;11.23;81.47
54854;BME280;40747;49.480;8.658;2023-03-19T04:04:06;100095.03;;;11.38;81.57
54854;BME280;40747;49.480;8.658;2023-03-19T04:06:31;100095.53;;;11.24;81.63
54854;BME280;40747;49.480;8.658;2023-03-19T04:08:56;100076.97;;;11.03;82.13
54854;BME280;40747;49.480;8.658;2023-03-19T04:11:21;100101.69;;;11.24;82.44
54854;BME280;40747;49.480;8.658;2023-03-19T04:13:47;100104.88;;;11.09;82.86
54854;BME280;40747;49.480;8.658;2023-03-19T04:16:12;100102.28;;;11.07;82.31
54854;BME280;40747;49.480;8.658;2023-03-19T04:18:40;100098.53;;;11.14;82.66
54854;BME280;40747;49.480;8.658;2023-03-19T04:21:05;100100.94;;;11.21;81.89
54854;BME280;40747;49.480;8.658;2023-03-19T04:23:31;100103.94;;;11.10;81.84
54854;BME280;40747;49.480;8.658;2023-03-19T04:25:58;100101.38;;;11.08;82.61
54854;BME280;40747;49.480;8.658;2023-03-19T04:28:24;100092.00;;;11.01;82.28
54854;BME280;40747;49.480;8.658;2023-03-19T04:30:49;100096.72;;;11.15;81.03
54854;BME280;40747;49.480;8.658;2023-03-19T04:33:15;100103.50;;;11.22;80.74
54854;BME280;40747;49.480;8.658;2023-03-19T04:35:41;100096.47;;;11.23;79.49
54854;BME280;40747;49.480;8.658;2023-03-19T04:38:06;100111.31;;;11.25;78.82
54854;BME280;40747;49.480;8.658;2023-03-19T04:40:32;100083.31;;;11.23;77.68
54854;BME280;40747;49.480;8.658;2023-03-19T04:42:57;100105.22;;;11.47;76.26
54854;BME280;40747;49.480;8.658;2023-03-19T04:45:22;100104.44;;;11.45;76.74
54854;BME280;40747;49.480;8.658;2023-03-19T04:47:47;100114.75;;;11.51;78.12
54854;BME280;40747;49.480;8.658;2023-03-19T04:50:13;100117.94;;;11.59;77.70
54854;BME280;40747;49.480;8.658;2023-03-19T04:52:39;100118.03;;;11.58;77.75
54854;BME280;40747;49.480;8.658;2023-03-19T04:55:06;100116.88;;;11.65;76.40
54854;BME280;40747;49.480;8.658;2023-03-19T04:57:32;100117.56;;;11.70;77.18
54854;BME280;40747;49.480;8.658;2023-03-19T04:59:57;100096.16;;;11.54;76.37
54854;BME280;40747;49.480;8.658;2023-03-19T05:02:23;100121.84;;;11.73;77.20
54854;BME280;40747;49.480;8.658;2023-03-19T05:04:48;100132.84;;;11.84;78.69
54854;BME280;40747;49.480;8.658;2023-03-19T05:07:14;100121.03;;;11.71;76.64
54854;BME280;40747;49.480;8.658;2023-03-19T05:09:40;100120.97;;;11.72;77.70
54854;BME280;40747;49.480;8.658;2023-03-19T05:12:07;100118.16;;;11.77;77.87
54854;BME280;40747;49.480;8.658;2023-03-19T05:14:32;100126.03;;;11.78;77.30
54854;BME280;40747;49.480;8.658;2023-03-19T05:16:58;100123.50;;;11.75;77.01
54854;BME280;40747;49.480;8.658;2023-03-19T05:19:23;100126.78;;;11.82;76.75
54854;BME280;40747;49.480;8.658;2023-03-19T05:21:49;100124.06;;;11.84;76.78
54854;BME280;40747;49.480;8.658;2023-03-19T05:24:14;100119.84;;;11.56;76.38
54854;BME280;40747;49.480;8.658;2023-03-19T05:26:39;100128.66;;;11.78;76.02
54854;BME280;40747;49.480;8.658;2023-03-19T05:29:05;100132.84;;;11.84;75.69
54854;BME280;40747;49.480;8.658;2023-03-19T05:31:31;100133.56;;;11.88;76.05
54854;BME280;40747;49.480;8.658;2023-03-19T05:33:57;100112.81;;;11.78;75.00
54854;BME280;40747;49.480;8.658;2023-03-19T05:36:22;100124.81;;;11.87;75.47
54854;BME280;40747;49.480;8.658;2023-03-19T05:38:48;100124.63;;;11.92;75.02
54854;BME280;40747;49.480;8.658;2023-03-19T05:41:13;100124.56;;;11.93;74.13
54854;BME280;40747;49.480;8.658;2023-03-19T05:43:38;100125.72;;;11.86;74.56
54854;BME280;40747;49.480;8.658;2023-03-19T05:46:04;100125.41;;;11.94;73.88
54854;BME280;40747;49.480;8.658;2023-03-19T05:48:29;100116.25;;;12.04;74.10
54854;BME280;40747;49.480;8.658;2023-03-19T05:50:54;100129.38;;;12.06;74.42
54854;BME280;40747;49.480;8.658;2023-03-19T05:53:20;100125.28;;;11.99;75.71
54854;BME280;40747;49.480;8.658;2023-03-19T05:55:47;100128.94;;;11.94;75.54
54854;BME280;40747;49.480;8.658;2023-03-19T05:58:12;100129.09;;;11.90;74.93
54854;BME280;40747;49.480;8.658;2023-03-19T06:00:37;100146.41;;;11.99;74.51
54854;BME280;40747;49.480;8.658;2023-03-19T06:03:03;100147.16;;;12.02;74.69
54854;BME280;40747;49.480;8.658;2023-03-19T06:05:28;100156.59;;;12.08;74.49
54854;BME280;40747;49.480;8.658;2023-03-19T06:07:53;100163.69;;;12.06;73.74
54854;BME280;40747;49.480;8.658;2023-03-19T06:10:19;100158.19;;;12.12;74.09
54854;BME280;40747;49.480;8.658;2023-03-19T06:12:45;100156.44;;;12.11;75.08
54854;BME280;40747;49.480;8.658;2023-03-19T06:15:10;100164.19;;;12.16;73.69
54854;BME280;40747;49.480;8.658;2023-03-19T06:17:36;100161.38;;;12.20;73.89
54854;BME280;40747;49.480;8.658;2023-03-19T06:20:01;100163.03;;;12.23;73.78
54854;BME280;40747;49.480;8.658;2023-03-19T06:22:26;100162.06;;;12.25;73.45
54854;BME280;40747;49.480;8.658;2023-03-19T06:24:52;100158.38;;;12.29;72.56
54854;BME280;40747;49.480;8.658;2023-03-19T06:27:17;100149.69;;;12.26;74.48
54854;BME280;40747;49.480;8.658;2023-03-19T06:29:43;100168.25;;;12.24;73.84
54854;BME280;40747;49.480;8.658;2023-03-19T06:32:08;100157.94;;;12.18;73.69
54854;BME280;40747;49.480;8.658;2023-03-19T06:34:34;100176.41;;;12.18;73.20
54854;BME280;40747;49.480;8.658;2023-03-19T06:37:00;100179.94;;;12.19;72.46
54854;BME280;40747;49.480;8.658;2023-03-19T06:39:26;100173.78;;;12.18;72.52
54854;BME280;40747;49.480;8.658;2023-03-19T06:41:51;100173.41;;;12.27;73.62
54854;BME280;40747;49.480;8.658;2023-03-19T06:44:16;100172.31;;;12.33;72.48
54854;BME280;40747;49.480;8.658;2023-03-19T06:46:42;100168.63;;;12.37;74.02
54854;BME280;40747;49.480;8.658;2023-03-19T06:49:07;100178.94;;;12.43;71.46
54854;BME280;40747;49.480;8.658;2023-03-19T06:51:32;100181.13;;;12.54;70.55
54854;BME280;40747;49.480;8.658;2023-03-19T06:53:58;100174.50;;;12.44;71.30
54854;BME280;40747;49.480;8.658;2023-03-19T06:56:23;100171.06;;;12.64;70.42
54854;BME280;40747;49.480;8.658;2023-03-19T06:58:48;100175.75;;;12.78;69.85
54854;BME280;40747;49.480;8.658;2023-03-19T07:01:14;100181.22;;;12.73;70.02
54854;BME280;40747;49.480;8.658;2023-03-19T07:03:40;100178.81;;;12.89;71.02
54854;BME280;40747;49.480;8.658;2023-03-19T07:06:05;100176.59;;;12.99;70.08
54854;BME280;40747;49.480;8.658;2023-03-19T07:08:31;100183.69;;;12.99;68.84
54854;BME280;40747;49.480;8.658;2023-03-19T07:11:02;100184.03;;;13.11;68.36
54854;BME280;40747;49.480;8.658;2023-03-19T07:13:28;100201.81;;;13.08;68.45
54854;BME280;40747;49.480;8.658;2023-03-19T07:15:53;100178.34;;;12.79;68.79
54854;BME280;40747;49.480;8.658;2023-03-19T07:18:18;100201.13;;;13.03;68.83
54854;BME280;40747;49.480;8.658;2023-03-19T07:20:44;100199.81;;;13.13;69.95
54854;BME280;40747;49.480;8.658;2023-03-19T07:23:09;100200.78;;;13.12;68.76
54854;BME280;40747;49.480;8.658;2023-03-19T07:25:35;100199.44;;;13.22;70.53
54854;BME280;40747;49.480;8.658;2023-03-19T07:28:00;100192.19;;;13.26;68.21
54854;BME280;40747;49.480;8.658;2023-03-19T07:30:25;100205.75;;;13.18;68.00
54854;BME280;40747;49.480;8.658;2023-03-19T07:32:51;100205.25;;;13.31;68.96
54854;BME280;40747;49.480;8.658;2023-03-19T07:35:16;100201.66;;;13.32;69.89
54854;BME280;40747;49.480;8.658;2023-03-19T07:37:41;100197.13;;;13.35;68.46
54854;BME280;40747;49.480;8.658;2023-03-19T07:40:07;100200.22;;;13.45;68.15
54854;BME280;40747;49.480;8.658;2023-03-19T07:42:34;100204.16;;;13.55;68.50
54854;BME280;40747;49.480;8.658;2023-03-19T07:45:01;100207.13;;;13.49;69.43
54854;BME280;40747;49.480;8.658;2023-03-19T07:47:26;100201.25;;;13.62;69.43
54854;BME280;40747;49.480;8.658;2023-03-19T07:49:52;100212.00;;;13.58;66.77
54854;BME280;40747;49.480;8.658;2023-03-19T07:52:17;100203.13;;;13.59;66.67
54854;BME280;40747;49.480;8.658;2023-03-19T07:54:43;100207.47;;;13.60;66.99
54854;BME280;40747;49.480;8.658;2023-03-19T07:57:08;100208.72;;;13.72;67.11
54854;BME280;40747;49.480;8.658;2023-03-19T07:59:33;100212.38;;;13.70;67.84
54854;BME280;40747;49.480;8.658;2023-03-19T08:01:59;100212.28;;;13.71;68.04
54854;BME280;40747;49.480;8.658;2023-03-19T08:04:24;100205.28;;;13.89;68.28
54854;BME280;40747;49.480;8.658;2023-03-19T08:06:49;100207.22;;;14.05;67.31
54854;BME280;40747;49.480;8.658;2023-03-19T08:09:15;100207.50;;;14.18;66.87
54854;BME280;40747;49.480;8.658;2023-03-19T08:11:40;100210.41;;;14.31;65.53
54854;BME280;40747;49.480;8.658;2023-03-19T08:14:06;100199.69;;;14.70;64.84
54854;BME280;40747;49.480;8.658;2023-03-19T08:16:31;100199.84;;;15.02;63.73
54854;BME280;40747;49.480;8.658;2023-03-19T08:18:56;100200.44;;;15.43;62.83
54854;BME280;40747;49.480;8.658;2023-03-19T08:21:22;100201.75;;;15.85;60.76
54854;BME280;40747;49.480;8.658;2023-03-19T08:23:47;100196.28;;;16.20;59.42
54854;BME280;40747;49.480;8.658;2023-03-19T08:26:12;100205.88;;;16.22;60.12
54854;BME280;40747;49.480;8.658;2023-03-19T08:28:38;100211.81;;;16.12;60.53
54854;BME280;40747;49.480;8.658;2023-03-19T08:31:11;100202.13;;;16.27;59.45
54854;BME280;40747;49.480;8.658;2023-03-19T08:33:37;100204.66;;;16.44;59.57
54854;BME280;40747;49.480;8.658;2023-03-19T08:36:05;100203.22;;;16.85;59.05
54854;BME280;40747;49.480;8.658;2023-03-19T08:38:31;100205.41;;;17.09;57.38
54854;BME280;40747;49.480;8.658;2023-03-19T08:40:56;100185.84;;;17.39;56.88
54854;BME280;40747;49.480;8.658;2023-03-19T08:43:26;100197.09;;;17.73;56.20
54854;BME280;40747;49.480;8.658;2023-03-19T08:45:51;100192.22;;;17.79;56.90
54854;BME280;40747;49.480;8.658;2023-03-19T08:48:16;100197.00;;;17.74;56.90
54854;BME280;40747;49.480;8.658;2023-03-19T08:50:42;100201.13;;;17.93;55.81
54854;BME280;40747;49.480;8.658;2023-03-19T08:53:07;100212.56;;;17.66;55.62
54854;BME280;40747;49.480;8.658;2023-03-19T08:55:33;100205.94;;;17.73;56.83
54854;BME280;40747;49.480;8.658;2023-03-19T08:57:58;100210.28;;;18.17;56.37
54854;BME280;40747;49.480;8.658;2023-03-19T09:00:23;100216.06;;;18.51;54.13
54854;BME280;40747;49.480;8.658;2023-03-19T09:02:49;100212.63;;;18.77;53.30
54854;BME280;40747;49.480;8.658;2023-03-19T09:05:14;100197.84;;;18.45;53.62
54854;BME280;40747;49.480;8.658;2023-03-19T09:07:40;100206.31;;;18.65;58.42
54854;BME280;40747;49.480;8.658;2023-03-19T09:10:05;100200.72;;;18.55;56.26
54854;BME280;40747;49.480;8.658;2023-03-19T09:12:31;100208.06;;;18.79;57.24
54854;BME280;40747;49.480;8.658;2023-03-19T09:14:57;100207.56;;;18.87;53.50
54854;BME280;40747;49.480;8.658;2023-03-19T09:17:22;100215.22;;;19.19;53.50
54854;BME280;40747;49.480;8.658;2023-03-19T09:19:47;100218.31;;;19.38;53.61
54854;BME280;40747;49.480;8.658;2023-03-19T09:22:13;100224.41;;;19.40;53.14
54854;BME280;40747;49.480;8.658;2023-03-19T09:24:38;100214.63;;;20.04;51.65
54854;BME280;40747;49.480;8.658;2023-03-19T09:27:03;100206.00;;;20.61;49.72
54854;BME280;40747;49.480;8.658;2023-03-19T09:29:29;100206.56;;;20.78;49.95
54854;BME280;40747;49.480;8.658;2023-03-19T09:31:54;100215.69;;;20.75;48.91
54854;BME280;40747;49.480;8.658;2023-03-19T09:34:19;100211.88;;;20.91;49.67
54854;BME280;40747;49.480;8.658;2023-03-19T09:36:45;100204.53;;;21.28;48.69
54854;BME280;40747;49.480;8.658;2023-03-19T09:39:10;100207.56;;;20.77;47.73
54854;BME280;40747;49.480;8.658;2023-03-19T09:41:56;100212.69;;;20.67;49.26
54854;BME280;40747;49.480;8.658;2023-03-19T09:44:33;100210.09;;;19.93;49.99
54854;BME280;40747;49.480;8.658;2023-03-19T09:47:35;100201.53;;;20.25;50.17
54854;BME280;40747;49.480;8.658;2023-03-19T09:50:05;100208.72;;;18.82;50.54
54854;BME280;40747;49.480;8.658;2023-03-19T09:52:45;100213.72;;;18.47;52.91
54854;BME280;40747;49.480;8.658;2023-03-19T09:57:43;100213.28;;;19.21;52.21
54854;BME280;40747;49.480;8.658;2023-03-19T10:00:35;100212.56;;;19.19;51.62
54854;BME280;40747;49.480;8.658;2023-03-19T10:06:25;100215.34;;;19.43;52.08
54854;BME280;40747;49.480;8.658;2023-03-19T10:09:27;100206.56;;;19.54;50.74
54854;BME280;40747;49.480;8.658;2023-03-19T10:12:25;100211.38;;;19.48;52.28
54854;BME280;40747;49.480;8.658;2023-03-19T10:17:55;100213.63;;;19.55;51.02
54854;BME280;40747;49.480;8.658;2023-03-19T10:25:36;100209.09;;;19.04;50.02
54854;BME280;40747;49.480;8.658;2023-03-19T10:28:13;100212.63;;;18.37;49.95
54854;BME280;40747;49.480;8.658;2023-03-19T10:30:53;100216.78;;;18.41;49.75
54854;BME280;40747;49.480;8.658;2023-03-19T10:33:25;100212.84;;;18.46;50.90
54854;BME280;40747;49.480;8.658;2023-03-19T10:36:02;100204.25;;;18.28;51.17
54854;BME280;40747;49.480;8.658;2023-03-19T10:38:29;100208.69;;;18.42;51.44
54854;BME280;40747;49.480;8.658;2023-03-19T10:41:37;100211.69;;;18.23;52.17
54854;BME280;40747;49.480;8.658;2023-03-19T10:44:28;100209.94;;;18.64;51.97
54854;BME280;40747;49.480;8.658;2023-03-19T10:46:56;100208.25;;;18.90;51.39
54854;BME280;40747;49.480;8.658;2023-03-19T10:49:22;100199.97;;;19.34;50.79
54854;BME280;40747;49.480;8.658;2023-03-19T10:51:47;100197.38;;;19.19;50.29
54854;BME280;40747;49.480;8.658;2023-03-19T10:54:23;100193.94;;;19.69;50.87
54854;BME280;40747;49.480;8.658;2023-03-19T10:56:50;100189.81;;;20.14;49.79
54854;BME280;40747;49.480;8.658;2023-03-19T11:01:48;100204.97;;;19.90;48.73
54854;BME280;40747;49.480;8.658;2023-03-19T11:04:20;100184.31;;;19.92;47.43
54854;BME280;40747;49.480;8.658;2023-03-19T11:06:51;100187.31;;;20.00;47.49
54854;BME280;40747;49.480;8.658;2023-03-19T11:09:32;100186.50;;;20.11;48.87
54854;BME280;40747;49.480;8.658;2023-03-19T11:14:43;100181.94;;;20.49;46.41
54854;BME280;40747;49.480;8.658;2023-03-19T11:17:19;100182.31;;;20.44;47.09
54854;BME280;40747;49.480;8.658;2023-03-19T11:19:59;100175.06;;;20.57;46.62
54854;BME280;40747;49.480;8.658;2023-03-19T11:22:41;100176.00;;;20.21;46.87
54854;BME280;40747;49.480;8.658;2023-03-19T11:27:39;100174.72;;;19.63;48.23
54854;BME280;40747;49.480;8.658;2023-03-19T11:30:13;100166.19;;;19.32;48.54
54854;BME280;40747;49.480;8.658;2023-03-19T11:35:24;100171.00;;;19.40;49.88
54854;BME280;40747;49.480;8.658;2023-03-19T11:37:57;100164.50;;;19.19;49.84
54854;BME280;40747;49.480;8.658;2023-03-19T11:43:55;100173.13;;;18.96;50.21
54854;BME280;40747;49.480;8.658;2023-03-19T11:48:50;100167.59;;;18.72;47.55
54854;BME280;40747;49.480;8.658;2023-03-19T11:51:27;100163.50;;;18.94;48.16
54854;BME280;40747;49.480;8.658;2023-03-19T11:59:45;100172.50;;;18.78;49.52
54854;BME280;40747;49.480;8.658;2023-03-19T12:05:20;100173.75;;;18.05;52.23
54854;BME280;40747;49.480;8.658;2023-03-19T12:08:01;100175.75;;;17.87;52.52
54854;BME280;40747;49.480;8.658;2023-03-19T12:13:28;100165.69;;;17.78;54.55
54854;BME280;40747;49.480;8.658;2023-03-19T12:16:26;100173.13;;;18.29;53.25
54854;BME280;40747;49.480;8.658;2023-03-19T12:30:02;100185.25;;;16.58;65.68
54854;BME280;40747;49.480;8.658;2023-03-19T12:35:35;100174.81;;;17.16;69.85
54854;BME280;40747;49.480;8.658;2023-03-19T12:40:50;100183.25;;;17.08;69.43
54854;BME280;40747;49.480;8.658;2023-03-19T12:43:24;100180.75;;;16.75;67.95
54854;BME280;40747;49.480;8.658;2023-03-19T12:45:58;100179.25;;;16.54;69.29
54854;BME280;40747;49.480;8.658;2023-03-19T12:51:11;100179.25;;;16.24;72.92
54854;BME280;40747;49.480;8.658;2023-03-19T12:53:48;100178.75;;;16.48;72.17
54854;BME280;40747;49.480;8.658;2023-03-19T12:56:40;100185.59;;;16.68;69.60
54854;BME280;40747;49.480;8.658;2023-03-19T13:01:52;100185.31;;;16.42;70.51
54854;BME280;40747;49.480;8.658;2023-03-19T13:04:28;100186.94;;;16.45;71.38
54854;BME280;40747;49.480;8.658;2023-03-19T13:07:01;100184.34;;;16.43;72.27
54854;BME280;40747;49.480;8.658;2023-03-19T13:09:43;100187.81;;;16.29;70.34
54854;BME280;40747;49.480;8.658;2023-03-19T13:12:17;100176.59;;;16.24;67.94
54854;BME280;40747;49.480;8.658;2023-03-19T13:15:55;100184.13;;;16.16;67.36
54854;BME280;40747;49.480;8.658;2023-03-19T13:18:13;100182.69;;;15.77;67.21
54854;BME280;40747;49.480;8.658;2023-03-19T13:23:37;100187.19;;;16.08;67.88
54854;BME280;40747;49.480;8.658;2023-03-19T13:26:09;100189.84;;;16.08;66.49
54854;BME280;40747;49.480;8.658;2023-03-19T13:28:37;100197.41;;;16.16;66.47
54854;BME280;40747;49.480;8.658;2023-03-19T13:31:20;100189.00;;;15.92;65.92
54854;BME280;40747;49.480;8.658;2023-03-19T13:36:40;100201.09;;;15.97;67.63
54854;BME280;40747;49.480;8.658;2023-03-19T13:39:15;100198.63;;;15.77;66.83
54854;BME280;40747;49.480;8.658;2023-03-19T13:44:35;100221.75;;;15.41;73.25
54854;BME280;40747;49.480;8.658;2023-03-19T13:58:04;100232.38;;;14.52;86.09
54854;BME280;40747;49.480;8.658;2023-03-19T14:03:21;100237.56;;;13.98;88.40
54854;BME280;40747;49.480;8.658;2023-03-19T14:05:50;100239.28;;;13.99;88.55
54854;BME280;40747;49.480;8.658;2023-03-19T14:08:21;100243.44;;;13.85;88.04
54854;BME280;40747;49.480;8.658;2023-03-19T14:10:50;100243.81;;;13.97;88.55
54854;BME280;40747;49.480;8.658;2023-03-19T14:13:42;100244.06;;;13.71;88.77
54854;BME280;40747;49.480;8.658;2023-03-19T14:16:41;100239.75;;;13.69;88.12
54854;BME280;40747;49.480;8.658;2023-03-19T14:19:16;100241.03;;;13.60;88.53
54854;BME280;40747;49.480;8.658;2023-03-19T14:26:53;100233.81;;;13.22;91.65
54854;BME280;40747;49.480;8.658;2023-03-19T14:29:21;100228.47;;;13.24;92.17
54854;BME280;40747;49.480;8.658;2023-03-19T14:31:52;100227.75;;;13.41;91.66
54854;BME280;40747;49.480;8.658;2023-03-19T14:36:57;100219.25;;;13.93;90.72
54854;BME280;40747;49.480;8.658;2023-03-19T14:39:31;100215.97;;;13.88;89.03
54854;BME280;40747;49.480;8.658;2023-03-19T14:42:02;100219.03;;;13.79;88.65
54854;BME280;40747;49.480;8.658;2023-03-19T14:50:59;100222.72;;;13.74;89.55
54854;BME280;40747;49.480;8.658;2023-03-19T14:53:38;100218.63;;;13.48;87.27
54854;BME280;40747;49.480;8.658;2023-03-19T14:56:29;100205.81;;;13.39;87.74
54854;BME280;40747;49.480;8.658;2023-03-19T14:58:56;100212.00;;;13.58;87.60
54854;BME280;40747;49.480;8.658;2023-03-19T15:01:23;100216.31;;;13.80;85.58
54854;BME280;40747;49.480;8.658;2023-03-19T15:04:12;100209.88;;;14.05;84.29
54854;BME280;40747;49.480;8.658;2023-03-19T15:06:40;100203.66;;;14.06;85.02
54854;BME280;40747;49.480;8.658;2023-03-19T15:09:11;100206.94;;;13.92;84.29
54854;BME280;40747;49.480;8.658;2023-03-19T15:17:20;100206.34;;;14.23;85.45
54854;BME280;40747;49.480;8.658;2023-03-19T15:19:47;100198.81;;;14.14;83.26
54854;BME280;40747;49.480;8.658;2023-03-19T15:22:18;100184.47;;;14.01;82.81
54854;BME280;40747;49.480;8.658;2023-03-19T15:24:44;100201.09;;;14.22;82.64
54854;BME280;40747;49.480;8.658;2023-03-19T15:27:25;100199.94;;;14.66;80.87
54854;BME280;40747;49.480;8.658;2023-03-19T15:29:52;100206.56;;;14.74;79.96
54854;BME280;40747;49.480;8.658;2023-03-19T15:32:34;100202.13;;;14.93;78.88
54854;BME280;40747;49.480;8.658;2023-03-19T15:35:00;100198.56;;;14.94;81.18
54854;BME280;40747;49.480;8.658;2023-03-19T15:37:27;100200.72;;;14.85;79.67
54854;BME280;40747;49.480;8.658;2023-03-19T15:39:55;100188.94;;;14.73;79.99
54854;BME280;40747;49.480;8.658;2023-03-19T15:42:24;100189.94;;;15.06;80.87
54854;BME280;40747;49.480;8.658;2023-03-19T15:45:01;100190.53;;;15.46;81.36
54854;BME280;40747;49.480;8.658;2023-03-19T15:47:30;100192.75;;;15.87;78.98
54854;BME280;40747;49.480;8.658;2023-03-19T15:50:05;100190.56;;;16.12;78.37
54854;BME280;40747;49.480;8.658;2023-03-19T15:52:35;100189.94;;;16.38;77.32
54854;BME280;40747;49.480;8.658;2023-03-19T15:55:03;100194.03;;;16.44;75.84
54854;BME280;40747;49.480;8.658;2023-03-19T15:57:30;100195.06;;;16.42;75.33
54854;BME280;40747;49.480;8.658;2023-03-19T15:59:58;100203.34;;;16.67;72.67
54854;BME280;40747;49.480;8.658;2023-03-19T16:02:29;100205.78;;;16.86;70.87
54854;BME280;40747;49.480;8.658;2023-03-19T16:04:56;100201.50;;;17.00;68.00
54854;BME280;40747;49.480;8.658;2023-03-19T16:09:58;100196.72;;;16.91;66.40
54854;BME280;40747;49.480;8.658;2023-03-19T16:12:38;100198.75;;;16.85;66.36
54854;BME280;40747;49.480;8.658;2023-03-19T16:15:41;100200.75;;;16.82;66.33
54854;BME280;40747;49.480;8.658;2023-03-19T16:20:42;100204.75;;;16.89;68.33
54854;BME280;40747;49.480;8.658;2023-03-19T16:23:15;100203.84;;;17.04;67.97
54854;BME280;40747;49.480;8.658;2023-03-19T16:25:45;100202.72;;;16.78;69.70
54854;BME280;40747;49.480;8.658;2023-03-19T16:28:18;100208.84;;;16.64;68.81
54854;BME280;40747;49.480;8.658;2023-03-19T16:30:46;100209.88;;;16.62;71.06
54854;BME280;40747;49.480;8.658;2023-03-19T16:33:12;100205.50;;;16.61;69.11
54854;BME280;40747;49.480;8.658;2023-03-19T16:35:38;100209.88;;;16.62;67.83
54854;BME280;40747;49.480;8.658;2023-03-19T16:38:22;100202.94;;;16.43;70.48
54854;BME280;40747;49.480;8.658;2023-03-19T16:40:49;100212.53;;;16.46;70.37